createdAt,value
2023-01-22T00:01:23.039Z,7.97
2023-01-22T00:03:50.235Z,7.38
2023-01-22T00:06:16.822Z,8.63
2023-01-22T00:08:46.582Z,7.20
2023-01-22T00:11:18.795Z,6.87
2023-01-22T00:13:48.119Z,6.80
2023-01-22T00:16:17.951Z,6.40
2023-01-22T00:18:45.173Z,6.20
2023-01-22T00:21:17.980Z,7.22
2023-01-22T00:23:45.100Z,6.07
2023-01-22T00:26:20.987Z,6.20
2023-01-22T00:28:47.500Z,5.05
2023-01-22T00:31:16.707Z,5.65
2023-01-22T00:33:46.050Z,5.75
2023-01-22T00:36:17.013Z,6.10
2023-01-22T00:38:44.770Z,6.20
2023-01-22T00:41:13.652Z,5.78
2023-01-22T00:43:42.357Z,5.70
2023-01-22T00:46:14.623Z,5.88
2023-01-22T00:48:49.780Z,5.40
2023-01-22T00:51:17.500Z,5.20
2023-01-22T00:53:46.938Z,5.47
2023-01-22T00:56:14.693Z,6.00
2023-01-22T00:58:43.970Z,5.75
2023-01-22T01:01:13.699Z,5.73
2023-01-22T01:03:41.653Z,5.32
2023-01-22T01:06:20.815Z,5.88
2023-01-22T01:08:49.782Z,5.97
2023-01-22T01:11:24.015Z,4.85
2023-01-22T01:13:52.394Z,5.83
2023-01-22T01:16:23.753Z,5.03
2023-01-22T01:18:53.003Z,5.85
2023-01-22T01:21:23.019Z,5.05
2023-01-22T01:23:50.125Z,5.85
2023-01-22T01:26:17.444Z,5.83
2023-01-22T01:28:45.433Z,5.22
2023-01-22T01:31:16.304Z,5.80
2023-01-22T01:33:43.874Z,5.50
2023-01-22T01:36:13.378Z,5.82
2023-01-22T01:38:40.330Z,4.23
2023-01-22T01:41:08.100Z,5.28
2023-01-22T01:43:50.269Z,5.25
2023-01-22T01:46:24.899Z,4.95
2023-01-22T01:48:55.282Z,5.78
2023-01-22T01:51:29.674Z,4.93
2023-01-22T01:53:57.515Z,5.25
2023-01-22T01:56:30.057Z,4.72
2023-01-22T01:59:03.068Z,5.25
2023-01-22T02:01:31.086Z,4.18
2023-01-22T02:03:58.059Z,4.80
2023-01-22T02:06:24.719Z,5.13
2023-01-22T02:08:51.856Z,4.15
2023-01-22T02:11:20.118Z,5.35
2023-01-22T02:13:51.728Z,4.57
2023-01-22T02:16:21.254Z,5.17
2023-01-22T02:18:47.857Z,5.03
2023-01-22T02:21:44.781Z,4.47
2023-01-22T02:24:14.231Z,3.63
2023-01-22T02:26:45.470Z,4.85
2023-01-22T02:29:13.889Z,4.00
2023-01-22T02:31:43.785Z,2.88
2023-01-22T02:34:11.174Z,3.78
2023-01-22T02:36:39.221Z,4.00
2023-01-22T02:39:06.379Z,4.22
2023-01-22T02:41:33.244Z,3.80
2023-01-22T02:43:59.866Z,4.20
2023-01-22T02:46:28.200Z,4.55
2023-01-22T02:48:54.826Z,4.35
2023-01-22T02:51:22.196Z,4.18
2023-01-22T02:53:49.973Z,3.77
2023-01-22T02:56:16.586Z,3.65
2023-01-22T02:58:43.026Z,3.63
2023-01-22T03:01:20.263Z,3.78
2023-01-22T03:03:48.449Z,3.42
2023-01-22T03:06:15.881Z,3.93
2023-01-22T03:08:43.733Z,3.60
2023-01-22T03:11:11.690Z,4.28
2023-01-22T03:13:56.766Z,4.55
2023-01-22T03:16:42.134Z,3.42
2023-01-22T03:19:28.715Z,3.97
2023-01-22T03:21:56.028Z,3.78
2023-01-22T03:24:22.635Z,2.90
2023-01-22T03:26:49.098Z,4.03
2023-01-22T03:29:15.875Z,2.45
2023-01-22T03:31:42.575Z,4.23
2023-01-22T03:34:09.171Z,3.60
2023-01-22T03:36:35.642Z,2.78
2023-01-22T03:39:02.135Z,3.20
2023-01-22T03:41:28.585Z,3.90
2023-01-22T03:43:55.087Z,4.27
2023-01-22T03:46:21.612Z,3.85
2023-01-22T03:48:51.547Z,3.55
2023-01-22T03:51:18.462Z,3.75
2023-01-22T03:53:46.217Z,3.63
2023-01-22T03:56:19.720Z,3.90
2023-01-22T03:58:47.843Z,3.70
2023-01-22T04:01:17.280Z,4.32
2023-01-22T04:03:43.991Z,3.60
2023-01-22T04:06:11.496Z,3.70
2023-01-22T04:08:41.830Z,3.03
2023-01-22T04:11:08.616Z,2.97
2023-01-22T04:13:36.972Z,3.50
2023-01-22T04:16:04.388Z,4.05
2023-01-22T04:18:30.896Z,4.00
2023-01-22T04:20:57.426Z,4.03
2023-01-22T04:23:25.264Z,3.08
2023-01-22T04:25:52.860Z,4.30
2023-01-22T04:28:20.300Z,4.00
2023-01-22T04:30:49.363Z,3.42
2023-01-22T04:33:16.019Z,4.03
2023-01-22T04:35:42.520Z,4.22
2023-01-22T04:38:12.841Z,3.85
2023-01-22T04:40:39.658Z,4.35
2023-01-22T04:43:07.767Z,4.35
2023-01-22T04:45:34.357Z,4.10
2023-01-22T04:48:01.757Z,4.03
2023-01-22T04:50:31.979Z,4.35
2023-01-22T04:53:00.179Z,3.33
2023-01-22T04:55:28.065Z,5.00
2023-01-22T04:57:56.461Z,2.87
2023-01-22T05:00:32.221Z,4.25
2023-01-22T05:03:00.690Z,4.47
2023-01-22T05:05:31.546Z,4.90
2023-01-22T05:07:59.249Z,4.47
2023-01-22T05:10:25.979Z,1.87
2023-01-22T06:18:18.586Z,3.53
2023-01-22T06:31:57.242Z,3.25
2023-01-22T06:34:23.914Z,3.70
2023-01-22T06:36:50.385Z,3.65
2023-01-22T06:39:17.921Z,4.20
2023-01-22T06:41:44.391Z,4.17
2023-01-22T06:44:11.038Z,2.60
2023-01-22T06:46:37.586Z,3.13
2023-01-22T06:49:04.845Z,3.75
2023-01-22T06:51:32.342Z,3.70
2023-01-22T06:53:59.549Z,3.60
2023-01-22T06:56:27.311Z,3.30
2023-01-22T06:58:53.926Z,3.30
2023-01-22T07:01:21.056Z,3.15
2023-01-22T07:03:48.588Z,3.13
2023-01-22T07:06:18.637Z,3.40
2023-01-22T07:08:45.876Z,3.72
2023-01-22T07:11:14.372Z,3.45
2023-01-22T07:13:42.758Z,3.33
2023-01-22T07:16:09.666Z,3.03
2023-01-22T07:18:36.433Z,2.77
2023-01-22T07:21:04.764Z,2.28
2023-01-22T07:23:31.294Z,3.15
2023-01-22T07:25:58.661Z,2.53
2023-01-22T07:28:25.642Z,3.08
2023-01-22T07:30:52.203Z,2.57
2023-01-22T07:33:18.845Z,3.10
2023-01-22T07:35:53.454Z,3.28
2023-01-22T07:38:20.038Z,2.40
2023-01-22T07:40:46.572Z,2.53
2023-01-22T07:43:16.654Z,3.23
2023-01-22T07:45:43.512Z,3.10
2023-01-22T07:48:10.907Z,2.83
2023-01-22T07:50:42.729Z,3.03
2023-01-22T07:53:11.672Z,2.58
2023-01-22T07:55:38.751Z,2.87
2023-01-22T07:58:07.687Z,1.73
2023-01-22T08:00:35.822Z,2.72
2023-01-22T08:03:05.189Z,2.60
2023-01-22T08:05:32.796Z,2.63
2023-01-22T08:08:00.951Z,3.40
2023-01-22T08:10:28.276Z,2.42
2023-01-22T08:12:54.934Z,2.63
2023-01-22T08:15:21.725Z,2.42
2023-01-22T08:17:52.752Z,2.92
2023-01-22T08:20:23.324Z,2.10
2023-01-22T08:22:49.898Z,2.22
2023-01-22T08:25:18.061Z,4.20
2023-01-22T08:27:44.888Z,2.67
2023-01-22T08:30:12.889Z,2.38
2023-01-22T08:32:41.985Z,2.30
2023-01-22T08:35:09.655Z,1.67
2023-01-22T08:37:37.298Z,1.48
2023-01-22T08:40:08.458Z,2.83
2023-01-22T08:42:45.979Z,2.33
2023-01-22T08:45:14.643Z,2.13
2023-01-22T08:47:41.200Z,2.20
2023-01-22T08:50:08.453Z,2.25
2023-01-22T08:52:36.010Z,2.50
2023-01-22T08:55:10.456Z,2.25
2023-01-22T08:57:37.275Z,3.37
2023-01-22T09:00:05.276Z,2.53
2023-01-22T09:02:32.348Z,2.15
2023-01-22T09:05:01.112Z,2.03
2023-01-22T09:07:27.764Z,3.03
2023-01-22T09:09:54.321Z,2.40
2023-01-22T09:12:20.779Z,2.25
2023-01-22T09:14:47.420Z,1.55
2023-01-22T09:17:13.947Z,2.00
2023-01-22T09:19:40.498Z,2.13
2023-01-22T09:22:07.622Z,1.47
2023-01-22T09:24:34.266Z,2.40
2023-01-22T09:27:00.896Z,2.47
2023-01-22T09:29:27.744Z,2.33
2023-01-22T09:31:54.410Z,1.98
2023-01-22T09:34:24.778Z,2.23
2023-01-22T09:36:53.019Z,2.33
2023-01-22T09:39:19.886Z,2.28
2023-01-22T09:41:51.503Z,2.30
2023-01-22T09:44:30.248Z,2.53
2023-01-22T09:47:15.507Z,1.83
2023-01-22T09:49:54.297Z,1.70
2023-01-22T09:52:24.786Z,1.92
2023-01-22T09:54:51.911Z,3.03
2023-01-22T09:57:31.151Z,2.20
2023-01-22T09:59:58.752Z,2.90
2023-01-22T10:02:29.426Z,2.95
2023-01-22T10:05:01.922Z,1.70
2023-01-22T10:07:46.162Z,2.25
2023-01-22T10:10:22.265Z,2.92
2023-01-22T10:13:12.817Z,2.60
2023-01-22T10:15:39.475Z,1.48
2023-01-22T10:18:15.013Z,2.40
2023-01-22T10:20:41.491Z,2.40
2023-01-22T10:23:19.005Z,2.65
2023-01-22T10:25:46.159Z,2.10
2023-01-22T10:28:15.011Z,2.33
2023-01-22T10:30:46.816Z,2.97
2023-01-22T10:33:17.578Z,1.88
2023-01-22T10:35:47.879Z,2.83
2023-01-22T10:38:34.543Z,1.27
2023-01-22T10:41:03.035Z,2.00
2023-01-22T10:43:33.790Z,2.00
2023-01-22T10:46:26.577Z,3.25
2023-01-22T10:49:05.539Z,1.63
2023-01-22T10:51:37.554Z,1.70
2023-01-22T10:54:18.295Z,2.33
2023-01-22T10:56:45.469Z,2.25
2023-01-22T10:59:29.544Z,2.47
2023-01-22T11:02:11.519Z,2.38
2023-01-22T11:04:38.187Z,1.63
2023-01-22T11:07:14.293Z,2.22
2023-01-22T11:09:45.635Z,2.70
2023-01-22T11:12:26.764Z,1.87
2023-01-22T11:15:09.272Z,1.80
2023-01-22T11:17:42.836Z,1.75
2023-01-22T11:20:26.016Z,1.50
2023-01-22T11:23:10.820Z,0.70
2023-01-22T11:26:07.388Z,1.75
2023-01-22T11:28:46.315Z,2.10
2023-01-22T11:31:42.866Z,2.17
2023-01-22T11:34:35.817Z,2.10
2023-01-22T11:37:16.422Z,2.03
2023-01-22T11:40:48.168Z,2.03
2023-01-22T11:43:24.255Z,2.10
2023-01-22T11:45:58.371Z,2.10
2023-01-22T11:48:52.432Z,2.42
2023-01-22T11:51:41.377Z,1.70
2023-01-22T11:54:31.363Z,2.10
2023-01-22T11:57:10.014Z,1.25
2023-01-22T12:00:04.893Z,2.83
2023-01-22T12:02:37.709Z,2.00
2023-01-22T12:05:23.160Z,2.10
2023-01-22T12:07:58.756Z,2.63
2023-01-22T12:10:49.468Z,1.63
2023-01-22T12:13:27.899Z,2.13
2023-01-22T12:16:05.999Z,2.40
2023-01-22T12:18:51.101Z,1.83
2023-01-22T12:21:23.064Z,2.38
2023-01-22T12:23:58.745Z,1.42
2023-01-22T12:26:41.582Z,2.03
2023-01-22T12:29:14.202Z,2.20
2023-01-22T12:31:59.156Z,1.63
2023-01-22T12:34:33.908Z,1.63
2023-01-22T12:37:03.245Z,1.33
2023-01-22T12:39:35.639Z,2.42
2023-01-22T12:42:26.004Z,2.45
2023-01-22T12:45:13.918Z,1.47
2023-01-22T12:47:55.697Z,2.30
2023-01-22T12:50:24.160Z,2.53
2023-01-22T12:53:04.248Z,2.90
2023-01-22T12:55:32.707Z,3.00
2023-01-22T12:57:59.319Z,3.03
2023-01-22T13:00:35.228Z,2.95
2023-01-22T13:03:04.865Z,2.08
2023-01-22T13:05:31.255Z,2.63
2023-01-22T13:08:26.727Z,2.88
2023-01-22T13:11:03.029Z,2.43
2023-01-22T13:13:44.899Z,3.42
2023-01-22T13:16:19.667Z,2.67
2023-01-22T13:18:49.790Z,2.33
2023-01-22T13:21:17.934Z,3.40
2023-01-22T13:23:47.369Z,2.47
2023-01-22T13:26:20.811Z,3.13
2023-01-22T13:29:22.216Z,2.90
2023-01-22T13:31:58.669Z,2.80
2023-01-22T13:34:26.626Z,3.00
2023-01-22T13:36:57.020Z,3.67
2023-01-22T13:39:33.152Z,2.72
2023-01-22T13:42:01.963Z,3.50
2023-01-22T13:44:34.633Z,4.22
2023-01-22T13:47:02.214Z,3.83
2023-01-22T13:49:31.538Z,3.30
2023-01-22T13:52:03.945Z,1.98
2023-01-22T13:54:38.333Z,2.67
2023-01-22T13:57:06.550Z,3.75
2023-01-22T13:59:35.784Z,4.05
2023-01-22T14:02:21.138Z,4.20
2023-01-22T14:04:48.696Z,4.70
2023-01-22T14:07:41.997Z,5.18
2023-01-22T14:10:24.915Z,3.63
2023-01-22T14:13:10.521Z,3.30
2023-01-22T14:15:39.430Z,3.63
2023-01-22T14:18:11.711Z,3.42
2023-01-22T14:20:42.654Z,3.30
2023-01-22T14:23:09.839Z,3.63
2023-01-22T14:25:41.990Z,3.50
2023-01-22T14:28:08.531Z,3.30
2023-01-22T14:30:35.493Z,3.85
2023-01-22T14:33:03.140Z,3.83
2023-01-22T14:35:29.771Z,4.05
2023-01-22T14:37:56.624Z,4.57
2023-01-22T14:40:25.505Z,4.33
2023-01-22T14:42:52.589Z,3.97
2023-01-22T14:45:20.328Z,3.92
2023-01-22T14:47:53.943Z,3.33
2023-01-22T14:50:22.061Z,3.90
2023-01-22T14:52:50.940Z,4.87
2023-01-22T14:55:17.701Z,4.30
2023-01-22T14:57:44.196Z,3.95
2023-01-22T15:00:13.629Z,5.00
2023-01-22T15:02:41.597Z,3.75
2023-01-22T15:05:09.464Z,4.23
2023-01-22T15:07:36.673Z,3.25
2023-01-22T15:10:05.254Z,3.47
2023-01-22T15:12:32.022Z,3.47
2023-01-22T15:14:58.570Z,3.65
2023-01-22T15:17:25.198Z,3.73
2023-01-22T15:19:51.815Z,3.63
2023-01-22T15:22:18.408Z,4.40
2023-01-22T15:24:44.880Z,4.60
2023-01-22T15:27:11.995Z,2.88
2023-01-22T15:29:38.625Z,3.97
2023-01-22T15:32:05.377Z,2.70
2023-01-22T15:34:31.822Z,3.72
2023-01-22T15:36:58.510Z,4.63
2023-01-22T15:39:25.129Z,5.07
2023-01-22T15:41:51.648Z,3.63
2023-01-22T15:44:18.180Z,4.43
2023-01-22T15:46:44.801Z,4.53
2023-01-22T15:49:13.185Z,8.88
2023-01-22T15:51:41.441Z,6.35
2023-01-22T15:54:08.814Z,5.50
2023-01-22T15:56:37.877Z,4.93
2023-01-22T15:59:05.029Z,5.43
2023-01-22T16:01:32.334Z,4.57
2023-01-22T16:04:00.969Z,4.30
2023-01-22T16:06:30.477Z,4.07
2023-01-22T16:08:59.974Z,4.97
2023-01-22T16:11:29.445Z,5.40
2023-01-22T16:13:59.009Z,6.18
2023-01-22T16:16:31.696Z,5.07
2023-01-22T16:19:00.852Z,6.23
2023-01-22T16:21:27.971Z,4.97
2023-01-22T16:23:56.851Z,5.32
2023-01-22T16:26:28.711Z,6.28
2023-01-22T16:28:57.236Z,4.93
2023-01-22T16:31:29.158Z,4.73
2023-01-22T16:33:58.103Z,5.53
2023-01-22T16:36:27.493Z,8.52
2023-01-22T16:38:53.971Z,7.30
2023-01-22T16:41:35.018Z,6.95
2023-01-22T16:44:06.361Z,7.17
2023-01-22T16:46:34.288Z,5.60
2023-01-22T16:49:05.371Z,5.07
2023-01-22T16:51:36.293Z,5.43
2023-01-22T16:54:03.843Z,3.92
2023-01-22T16:56:32.471Z,4.70
2023-01-22T16:59:00.101Z,4.78
2023-01-22T17:01:29.388Z,4.22
2023-01-22T17:03:56.155Z,4.32
2023-01-22T17:06:39.704Z,4.45
2023-01-22T17:09:07.370Z,4.60
2023-01-22T17:11:33.888Z,5.68
2023-01-22T17:14:00.451Z,5.45
2023-01-22T17:16:26.991Z,5.47
2023-01-22T17:18:54.980Z,6.72
2023-01-22T17:21:21.691Z,5.97
2023-01-22T17:23:48.275Z,5.03
2023-01-22T17:26:16.148Z,4.45
2023-01-22T17:28:43.888Z,4.93
2023-01-22T17:31:15.923Z,4.22
2023-01-22T17:33:43.624Z,4.77
2023-01-22T17:36:13.482Z,4.55
2023-01-22T17:38:40.146Z,5.00
2023-01-22T17:41:14.252Z,4.47
2023-01-22T17:43:40.786Z,5.28
2023-01-22T17:46:10.892Z,4.80
2023-01-22T17:48:38.090Z,4.10
2023-01-22T17:51:08.515Z,4.82
2023-01-22T17:53:37.283Z,4.57
2023-01-22T17:56:05.707Z,5.10
2023-01-22T17:58:32.292Z,5.67
2023-01-22T18:01:06.892Z,4.47
2023-01-22T18:03:34.424Z,5.38
2023-01-22T18:06:01.657Z,4.68
2023-01-22T18:08:30.110Z,5.43
2023-01-22T18:10:57.751Z,5.40
2023-01-22T18:13:24.908Z,4.35
2023-01-22T18:15:52.423Z,4.75
2023-01-22T18:18:19.025Z,4.93
2023-01-22T18:20:46.684Z,3.88
2023-01-22T18:23:15.178Z,6.20
2023-01-22T18:25:46.679Z,4.50
2023-01-22T18:28:14.962Z,5.07
2023-01-22T18:30:41.622Z,5.32
2023-01-22T18:33:10.067Z,5.45
2023-01-22T18:35:36.642Z,4.50
2023-01-22T18:38:03.297Z,4.95
2023-01-22T18:40:31.224Z,5.75
2023-01-22T18:42:58.027Z,4.97
2023-01-22T18:45:25.129Z,5.05
2023-01-22T18:47:55.116Z,5.20
2023-01-22T18:50:22.125Z,4.82
2023-01-22T18:52:49.289Z,4.60
2023-01-22T18:55:17.326Z,4.50
2023-01-22T18:57:46.325Z,4.57
2023-01-22T19:00:15.118Z,5.30
2023-01-22T19:02:41.834Z,4.55
2023-01-22T19:05:08.641Z,5.65
2023-01-22T19:07:38.141Z,5.15
2023-01-22T19:10:07.770Z,5.32
2023-01-22T19:12:34.322Z,5.27
2023-01-22T19:15:00.849Z,5.90
2023-01-22T19:17:27.661Z,4.85
2023-01-22T19:19:54.109Z,5.10
2023-01-22T19:22:23.375Z,4.97
2023-01-22T19:24:51.046Z,5.40
2023-01-22T19:27:17.635Z,4.45
2023-01-22T19:29:45.776Z,4.38
2023-01-22T19:32:15.156Z,5.20
2023-01-22T19:34:42.523Z,5.40
2023-01-22T19:37:09.621Z,5.10
2023-01-22T19:39:36.550Z,5.60
2023-01-22T19:42:05.112Z,5.50
2023-01-22T19:44:35.029Z,5.15
2023-01-22T19:47:02.303Z,5.40
2023-01-22T19:49:29.771Z,4.63
2023-01-22T19:51:56.493Z,4.78
2023-01-22T19:54:24.549Z,4.63
2023-01-22T19:56:51.063Z,4.78
2023-01-22T19:59:19.694Z,5.30
2023-01-22T20:01:48.361Z,3.67
2023-01-22T20:04:20.662Z,5.07
2023-01-22T20:06:51.183Z,4.50
2023-01-22T20:09:21.795Z,4.55
2023-01-22T20:11:55.095Z,5.07
2023-01-22T20:14:29.899Z,5.28
2023-01-22T20:16:57.854Z,4.38
2023-01-22T20:19:24.766Z,5.07
2023-01-22T20:21:51.632Z,4.70
2023-01-22T20:24:18.361Z,4.40
2023-01-22T20:26:45.094Z,4.57
2023-01-22T20:29:15.115Z,4.75
2023-01-22T20:31:42.144Z,5.18
2023-01-22T20:34:08.772Z,4.85
2023-01-22T20:36:37.003Z,4.80
2023-01-22T20:39:03.851Z,4.80
2023-01-22T20:41:33.389Z,4.95
2023-01-22T20:44:01.024Z,4.43
2023-01-22T20:46:28.092Z,4.30
2023-01-22T20:48:58.877Z,4.57
2023-01-22T20:51:28.480Z,4.47
2023-01-22T20:53:56.721Z,5.40
2023-01-22T20:56:28.405Z,5.00
2023-01-22T20:58:57.483Z,4.80
2023-01-22T21:01:25.219Z,6.43
2023-01-22T21:03:52.255Z,4.30
2023-01-22T21:06:20.736Z,5.05
2023-01-22T21:08:52.474Z,4.30
2023-01-22T21:11:20.578Z,4.63
2023-01-22T21:13:48.599Z,4.80
2023-01-22T21:16:17.940Z,4.63
2023-01-22T21:18:46.363Z,4.70
2023-01-22T21:21:19.164Z,5.82
2023-01-22T21:23:52.090Z,6.07
2023-01-22T21:26:22.824Z,3.77
2023-01-22T21:29:10.039Z,5.00
2023-01-22T21:31:37.361Z,4.68
2023-01-22T21:34:06.130Z,4.88
2023-01-22T21:36:39.005Z,4.13
2023-01-22T21:39:09.151Z,4.32
2023-01-22T21:41:36.608Z,4.50
2023-01-22T21:44:21.587Z,5.18
2023-01-22T21:46:48.085Z,5.07
2023-01-22T21:49:22.488Z,5.00
2023-01-22T21:52:01.356Z,4.82
2023-01-22T21:54:43.488Z,5.72
2023-01-22T21:57:16.867Z,4.65
2023-01-22T21:59:45.685Z,4.75
2023-01-22T22:02:16.234Z,4.50
2023-01-22T22:04:42.805Z,4.50
2023-01-22T22:07:09.422Z,5.55
2023-01-22T22:09:35.941Z,4.97
2023-01-22T22:12:03.251Z,4.70
2023-01-22T22:14:30.272Z,5.17
2023-01-22T22:16:57.998Z,4.85
2023-01-22T22:19:25.469Z,5.25
2023-01-22T22:21:52.092Z,4.72
2023-01-22T22:24:19.987Z,5.20
2023-01-22T22:26:46.516Z,4.97
2023-01-22T22:29:13.239Z,5.30
2023-01-22T22:31:40.169Z,5.03
2023-01-22T22:34:07.075Z,5.70
2023-01-22T22:36:33.775Z,5.32
2023-01-22T22:39:01.831Z,5.30
2023-01-22T22:41:33.639Z,4.63
2023-01-22T22:44:00.378Z,4.40
2023-01-22T22:46:38.575Z,5.43
2023-01-22T22:49:06.078Z,4.93
2023-01-22T22:51:35.201Z,4.27
2023-01-22T22:54:08.879Z,4.97
2023-01-22T22:56:35.514Z,4.80
2023-01-22T22:59:03.591Z,4.35
2023-01-22T23:01:33.068Z,4.85
2023-01-22T23:04:01.033Z,4.63
2023-01-22T23:06:29.994Z,4.72
2023-01-22T23:08:58.825Z,5.28
2023-01-22T23:11:32.169Z,4.53
2023-01-22T23:14:01.549Z,4.32
2023-01-22T23:16:35.501Z,5.30
2023-01-22T23:19:04.159Z,4.55
2023-01-22T23:21:30.910Z,6.03
2023-01-22T23:23:57.501Z,5.20
2023-01-22T23:26:29.867Z,5.03
2023-01-22T23:29:02.788Z,4.80
2023-01-22T23:31:31.337Z,4.70
2023-01-22T23:33:59.507Z,5.13
2023-01-22T23:36:26.163Z,4.95
2023-01-22T23:38:53.541Z,3.83
2023-01-22T23:41:21.068Z,4.90
2023-01-22T23:43:47.675Z,4.03
2023-01-22T23:46:21.096Z,4.63
2023-01-22T23:48:47.957Z,4.65
2023-01-22T23:51:15.788Z,4.65
2023-01-22T23:53:50.102Z,4.20
2023-01-22T23:56:16.713Z,4.63
2023-01-22T23:58:43.493Z,4.07
